sensor_id;sensor_type;location;lat;lon;timestamp;P1;durP1;ratioP1;P2;durP2;ratioP2
9892;SDS011;4985;49.092;8.542;2022-09-09T00:01:53;8.13;;;2.20;;
9892;SDS011;4985;49.092;8.542;2022-09-09T00:04:27;5.87;;;2.78;;
9892;SDS011;4985;49.092;8.542;2022-09-09T00:06:59;8.73;;;3.15;;
9892;SDS011;4985;49.092;8.542;2022-09-09T00:09:30;4.28;;;2.53;;
9892;SDS011;4985;49.092;8.542;2022-09-09T00:12:04;5.18;;;2.67;;
9892;SDS011;4985;49.092;8.542;2022-09-09T00:14:37;3.67;;;1.83;;
9892;SDS011;4985;49.092;8.542;2022-09-09T00:17:12;5.87;;;2.60;;
9892;SDS011;4985;49.092;8.542;2022-09-09T00:19:48;3.35;;;2.03;;
9892;SDS011;4985;49.092;8.542;2022-09-09T00:22:19;4.45;;;1.65;;
9892;SDS011;4985;49.092;8.542;2022-09-09T00:24:47;3.12;;;1.80;;
9892;SDS011;4985;49.092;8.542;2022-09-09T00:27:19;5.40;;;2.15;;
9892;SDS011;4985;49.092;8.542;2022-09-09T00:29:53;2.17;;;1.45;;
9892;SDS011;4985;49.092;8.542;2022-09-09T00:32:24;3.55;;;1.73;;
9892;SDS011;4985;49.092;8.542;2022-09-09T00:34:58;2.97;;;1.45;;
9892;SDS011;4985;49.092;8.542;2022-09-09T00:37:30;6.70;;;1.92;;
9892;SDS011;4985;49.092;8.542;2022-09-09T00:39:59;3.30;;;1.70;;
9892;SDS011;4985;49.092;8.542;2022-09-09T00:42:31;2.78;;;1.80;;
9892;SDS011;4985;49.092;8.542;2022-09-09T00:45:10;4.22;;;1.73;;
9892;SDS011;4985;49.092;8.542;2022-09-09T00:47:46;4.57;;;1.70;;
9892;SDS011;4985;49.092;8.542;2022-09-09T00:50:34;3.80;;;2.03;;
9892;SDS011;4985;49.092;8.542;2022-09-09T00:53:13;3.40;;;1.60;;
9892;SDS011;4985;49.092;8.542;2022-09-09T00:55:51;2.53;;;1.90;;
9892;SDS011;4985;49.092;8.542;2022-09-09T00:58:23;5.07;;;2.20;;
9892;SDS011;4985;49.092;8.542;2022-09-09T01:00:53;4.47;;;1.77;;
9892;SDS011;4985;49.092;8.542;2022-09-09T01:03:29;2.22;;;1.23;;
9892;SDS011;4985;49.092;8.542;2022-09-09T01:06:10;3.58;;;1.48;;
9892;SDS011;4985;49.092;8.542;2022-09-09T01:08:52;3.72;;;1.45;;
9892;SDS011;4985;49.092;8.542;2022-09-09T01:11:33;4.53;;;1.20;;
9892;SDS011;4985;49.092;8.542;2022-09-09T01:14:11;2.50;;;1.50;;
9892;SDS011;4985;49.092;8.542;2022-09-09T01:16:48;1.65;;;1.20;;
9892;SDS011;4985;49.092;8.542;2022-09-09T01:19:19;3.10;;;1.30;;
9892;SDS011;4985;49.092;8.542;2022-09-09T01:21:59;2.35;;;1.45;;
9892;SDS011;4985;49.092;8.542;2022-09-09T01:24:38;2.17;;;1.08;;
9892;SDS011;4985;49.092;8.542;2022-09-09T01:27:10;2.17;;;1.17;;
9892;SDS011;4985;49.092;8.542;2022-09-09T01:29:39;1.35;;;1.10;;
9892;SDS011;4985;49.092;8.542;2022-09-09T01:35:06;3.03;;;0.90;;
9892;SDS011;4985;49.092;8.542;2022-09-09T01:37:35;2.42;;;0.80;;
9892;SDS011;4985;49.092;8.542;2022-09-09T01:40:02;3.37;;;0.80;;
9892;SDS011;4985;49.092;8.542;2022-09-09T01:42:30;5.40;;;1.10;;
9892;SDS011;4985;49.092;8.542;2022-09-09T01:44:57;1.83;;;1.40;;
9892;SDS011;4985;49.092;8.542;2022-09-09T01:47:23;6.62;;;1.12;;
9892;SDS011;4985;49.092;8.542;2022-09-09T01:49:50;3.62;;;1.27;;
9892;SDS011;4985;49.092;8.542;2022-09-09T01:52:17;1.40;;;0.80;;
9892;SDS011;4985;49.092;8.542;2022-09-09T01:54:43;2.83;;;1.30;;
9892;SDS011;4985;49.092;8.542;2022-09-09T01:57:11;3.85;;;1.17;;
9892;SDS011;4985;49.092;8.542;2022-09-09T01:59:47;0.60;;;0.60;;
9892;SDS011;4985;49.092;8.542;2022-09-09T02:02:22;1.67;;;1.05;;
9892;SDS011;4985;49.092;8.542;2022-09-09T02:04:56;1.77;;;0.95;;
9892;SDS011;4985;49.092;8.542;2022-09-09T02:07:35;1.87;;;1.02;;
9892;SDS011;4985;49.092;8.542;2022-09-09T02:10:08;2.92;;;1.00;;
9892;SDS011;4985;49.092;8.542;2022-09-09T02:12:38;1.12;;;0.70;;
9892;SDS011;4985;49.092;8.542;2022-09-09T02:15:14;1.87;;;0.90;;
9892;SDS011;4985;49.092;8.542;2022-09-09T02:17:46;0.70;;;0.62;;
9892;SDS011;4985;49.092;8.542;2022-09-09T02:20:16;2.12;;;0.95;;
9892;SDS011;4985;49.092;8.542;2022-09-09T02:22:45;4.75;;;1.02;;
9892;SDS011;4985;49.092;8.542;2022-09-09T02:25:15;2.53;;;0.95;;
9892;SDS011;4985;49.092;8.542;2022-09-09T02:27:45;1.90;;;1.02;;
9892;SDS011;4985;49.092;8.542;2022-09-09T02:30:17;3.40;;;0.90;;
9892;SDS011;4985;49.092;8.542;2022-09-09T02:32:44;0.70;;;0.70;;
9892;SDS011;4985;49.092;8.542;2022-09-09T02:35:14;1.50;;;0.75;;
9892;SDS011;4985;49.092;8.542;2022-09-09T02:37:44;1.65;;;0.93;;
9892;SDS011;4985;49.092;8.542;2022-09-09T02:40:12;0.80;;;0.80;;
9892;SDS011;4985;49.092;8.542;2022-09-09T02:42:41;3.28;;;0.98;;
9892;SDS011;4985;49.092;8.542;2022-09-09T02:45:09;0.85;;;0.70;;
9892;SDS011;4985;49.092;8.542;2022-09-09T02:47:40;1.40;;;0.80;;
9892;SDS011;4985;49.092;8.542;2022-09-09T02:50:15;1.12;;;0.80;;
9892;SDS011;4985;49.092;8.542;2022-09-09T02:52:47;2.42;;;0.82;;
9892;SDS011;4985;49.092;8.542;2022-09-09T02:55:24;1.70;;;0.80;;
9892;SDS011;4985;49.092;8.542;2022-09-09T02:58:01;2.53;;;0.93;;
9892;SDS011;4985;49.092;8.542;2022-09-09T03:00:32;1.55;;;1.02;;
9892;SDS011;4985;49.092;8.542;2022-09-09T03:03:02;2.80;;;0.88;;
9892;SDS011;4985;49.092;8.542;2022-09-09T03:05:29;0.80;;;0.73;;
9892;SDS011;4985;49.092;8.542;2022-09-09T03:07:56;1.85;;;0.85;;
9892;SDS011;4985;49.092;8.542;2022-09-09T03:10:23;0.80;;;0.80;;
9892;SDS011;4985;49.092;8.542;2022-09-09T03:12:50;1.48;;;0.80;;
9892;SDS011;4985;49.092;8.542;2022-09-09T03:15:16;1.52;;;0.80;;
9892;SDS011;4985;49.092;8.542;2022-09-09T03:17:43;0.82;;;0.80;;
9892;SDS011;4985;49.092;8.542;2022-09-09T03:20:11;2.00;;;1.02;;
9892;SDS011;4985;49.092;8.542;2022-09-09T03:22:38;1.83;;;0.65;;
9892;SDS011;4985;49.092;8.542;2022-09-09T03:25:05;1.30;;;0.73;;
9892;SDS011;4985;49.092;8.542;2022-09-09T03:27:32;1.12;;;0.75;;
9892;SDS011;4985;49.092;8.542;2022-09-09T03:29:59;0.82;;;0.70;;
9892;SDS011;4985;49.092;8.542;2022-09-09T03:32:29;1.58;;;1.08;;
9892;SDS011;4985;49.092;8.542;2022-09-09T03:34:56;1.12;;;0.88;;
9892;SDS011;4985;49.092;8.542;2022-09-09T03:37:24;0.82;;;0.82;;
9892;SDS011;4985;49.092;8.542;2022-09-09T03:39:50;3.97;;;0.95;;
9892;SDS011;4985;49.092;8.542;2022-09-09T03:42:19;0.65;;;0.65;;
9892;SDS011;4985;49.092;8.542;2022-09-09T03:44:45;1.52;;;0.90;;
9892;SDS011;4985;49.092;8.542;2022-09-09T03:47:15;1.85;;;0.90;;
9892;SDS011;4985;49.092;8.542;2022-09-09T03:49:41;3.70;;;1.10;;
9892;SDS011;4985;49.092;8.542;2022-09-09T03:52:08;2.05;;;0.73;;
9892;SDS011;4985;49.092;8.542;2022-09-09T03:54:36;0.75;;;0.70;;
9892;SDS011;4985;49.092;8.542;2022-09-09T03:57:04;2.10;;;1.15;;
9892;SDS011;4985;49.092;8.542;2022-09-09T03:59:30;1.65;;;0.80;;
9892;SDS011;4985;49.092;8.542;2022-09-09T04:01:57;1.10;;;0.70;;
9892;SDS011;4985;49.092;8.542;2022-09-09T04:04:24;0.95;;;0.85;;
9892;SDS011;4985;49.092;8.542;2022-09-09T04:06:51;2.92;;;1.05;;
9892;SDS011;4985;49.092;8.542;2022-09-09T04:09:18;1.15;;;0.70;;
9892;SDS011;4985;49.092;8.542;2022-09-09T04:11:45;1.37;;;0.90;;
9892;SDS011;4985;49.092;8.542;2022-09-09T04:14:12;2.42;;;0.80;;
9892;SDS011;4985;49.092;8.542;2022-09-09T04:16:39;1.98;;;0.75;;
9892;SDS011;4985;49.092;8.542;2022-09-09T04:19:08;3.05;;;0.93;;
9892;SDS011;4985;49.092;8.542;2022-09-09T04:21:37;2.00;;;0.90;;
9892;SDS011;4985;49.092;8.542;2022-09-09T04:24:04;0.93;;;0.75;;
9892;SDS011;4985;49.092;8.542;2022-09-09T04:26:31;2.03;;;0.90;;
9892;SDS011;4985;49.092;8.542;2022-09-09T04:29:00;3.70;;;1.05;;
9892;SDS011;4985;49.092;8.542;2022-09-09T04:31:26;1.65;;;0.90;;
9892;SDS011;4985;49.092;8.542;2022-09-09T04:33:53;1.10;;;0.80;;
9892;SDS011;4985;49.092;8.542;2022-09-09T04:36:19;1.92;;;0.90;;
9892;SDS011;4985;49.092;8.542;2022-09-09T04:38:46;8.15;;;1.35;;
9892;SDS011;4985;49.092;8.542;2022-09-09T04:41:13;1.48;;;0.98;;
9892;SDS011;4985;49.092;8.542;2022-09-09T04:43:41;1.37;;;0.73;;
9892;SDS011;4985;49.092;8.542;2022-09-09T04:46:09;1.92;;;1.00;;
9892;SDS011;4985;49.092;8.542;2022-09-09T04:48:36;1.90;;;1.08;;
9892;SDS011;4985;49.092;8.542;2022-09-09T04:51:03;1.87;;;1.23;;
9892;SDS011;4985;49.092;8.542;2022-09-09T04:53:31;2.05;;;0.95;;
9892;SDS011;4985;49.092;8.542;2022-09-09T04:56:02;1.58;;;0.98;;
9892;SDS011;4985;49.092;8.542;2022-09-09T04:58:30;1.85;;;1.00;;
9892;SDS011;4985;49.092;8.542;2022-09-09T05:01:02;5.60;;;1.08;;
9892;SDS011;4985;49.092;8.542;2022-09-09T05:03:31;3.00;;;0.90;;
9892;SDS011;4985;49.092;8.542;2022-09-09T05:06:02;1.10;;;0.60;;
9892;SDS011;4985;49.092;8.542;2022-09-09T05:08:30;1.10;;;1.00;;
9892;SDS011;4985;49.092;8.542;2022-09-09T05:10:56;1.80;;;0.80;;
9892;SDS011;4985;49.092;8.542;2022-09-09T05:13:23;1.42;;;0.75;;
9892;SDS011;4985;49.092;8.542;2022-09-09T05:15:51;1.92;;;0.80;;
9892;SDS011;4985;49.092;8.542;2022-09-09T05:18:18;1.08;;;0.65;;
9892;SDS011;4985;49.092;8.542;2022-09-09T05:20:46;1.60;;;0.80;;
9892;SDS011;4985;49.092;8.542;2022-09-09T05:23:12;0.90;;;0.80;;
9892;SDS011;4985;49.092;8.542;2022-09-09T05:25:39;1.98;;;1.40;;
9892;SDS011;4985;49.092;8.542;2022-09-09T05:28:07;0.70;;;0.70;;
9892;SDS011;4985;49.092;8.542;2022-09-09T05:30:33;1.00;;;0.80;;
9892;SDS011;4985;49.092;8.542;2022-09-09T05:33:00;1.40;;;0.93;;
9892;SDS011;4985;49.092;8.542;2022-09-09T05:35:27;1.02;;;0.82;;
9892;SDS011;4985;49.092;8.542;2022-09-09T05:37:55;1.20;;;0.93;;
9892;SDS011;4985;49.092;8.542;2022-09-09T05:40:25;2.03;;;0.77;;
9892;SDS011;4985;49.092;8.542;2022-09-09T05:42:52;2.00;;;0.98;;
9892;SDS011;4985;49.092;8.542;2022-09-09T05:45:18;1.67;;;0.90;;
9892;SDS011;4985;49.092;8.542;2022-09-09T05:47:45;0.93;;;0.73;;
9892;SDS011;4985;49.092;8.542;2022-09-09T05:50:18;0.95;;;0.70;;
9892;SDS011;4985;49.092;8.542;2022-09-09T05:52:44;0.95;;;0.70;;
9892;SDS011;4985;49.092;8.542;2022-09-09T05:55:12;1.42;;;0.88;;
9892;SDS011;4985;49.092;8.542;2022-09-09T05:57:40;1.27;;;0.68;;
9892;SDS011;4985;49.092;8.542;2022-09-09T06:00:07;1.42;;;0.80;;
9892;SDS011;4985;49.092;8.542;2022-09-09T06:02:35;2.83;;;0.80;;
9892;SDS011;4985;49.092;8.542;2022-09-09T06:05:04;1.77;;;0.82;;
9892;SDS011;4985;49.092;8.542;2022-09-09T06:07:31;2.17;;;1.00;;
9892;SDS011;4985;49.092;8.542;2022-09-09T06:09:58;1.85;;;0.98;;
9892;SDS011;4985;49.092;8.542;2022-09-09T06:12:26;1.62;;;0.98;;
9892;SDS011;4985;49.092;8.542;2022-09-09T06:14:52;1.05;;;0.90;;
9892;SDS011;4985;49.092;8.542;2022-09-09T06:17:19;1.80;;;0.80;;
9892;SDS011;4985;49.092;8.542;2022-09-09T06:19:46;1.30;;;0.75;;
9892;SDS011;4985;49.092;8.542;2022-09-09T06:22:12;1.70;;;0.88;;
9892;SDS011;4985;49.092;8.542;2022-09-09T06:24:39;0.77;;;0.75;;
9892;SDS011;4985;49.092;8.542;2022-09-09T06:27:05;4.05;;;1.15;;
9892;SDS011;4985;49.092;8.542;2022-09-09T06:29:33;1.25;;;0.80;;
9892;SDS011;4985;49.092;8.542;2022-09-09T06:32:00;2.60;;;0.70;;
9892;SDS011;4985;49.092;8.542;2022-09-09T06:34:27;0.80;;;0.77;;
9892;SDS011;4985;49.092;8.542;2022-09-09T06:36:54;1.67;;;0.85;;
9892;SDS011;4985;49.092;8.542;2022-09-09T06:39:22;2.05;;;1.08;;
9892;SDS011;4985;49.092;8.542;2022-09-09T06:41:49;1.62;;;0.80;;
9892;SDS011;4985;49.092;8.542;2022-09-09T06:44:18;2.05;;;0.93;;
9892;SDS011;4985;49.092;8.542;2022-09-09T06:46:46;1.80;;;1.08;;
9892;SDS011;4985;49.092;8.542;2022-09-09T06:49:13;1.30;;;0.77;;
9892;SDS011;4985;49.092;8.542;2022-09-09T06:51:40;1.20;;;0.80;;
9892;SDS011;4985;49.092;8.542;2022-09-09T06:54:07;2.17;;;1.00;;
9892;SDS011;4985;49.092;8.542;2022-09-09T06:56:35;1.30;;;0.80;;
9892;SDS011;4985;49.092;8.542;2022-09-09T06:59:06;1.83;;;0.93;;
9892;SDS011;4985;49.092;8.542;2022-09-09T07:01:34;2.17;;;1.10;;
9892;SDS011;4985;49.092;8.542;2022-09-09T07:04:03;2.85;;;1.12;;
9892;SDS011;4985;49.092;8.542;2022-09-09T07:06:33;2.22;;;1.10;;
9892;SDS011;4985;49.092;8.542;2022-09-09T07:09:02;4.68;;;0.80;;
9892;SDS011;4985;49.092;8.542;2022-09-09T07:11:31;3.78;;;1.12;;
9892;SDS011;4985;49.092;8.542;2022-09-09T07:13:59;1.05;;;0.95;;
9892;SDS011;4985;49.092;8.542;2022-09-09T07:16:26;3.37;;;1.30;;
9892;SDS011;4985;49.092;8.542;2022-09-09T07:18:54;2.92;;;1.00;;
9892;SDS011;4985;49.092;8.542;2022-09-09T07:21:24;3.03;;;1.08;;
9892;SDS011;4985;49.092;8.542;2022-09-09T07:23:52;3.67;;;1.15;;
9892;SDS011;4985;49.092;8.542;2022-09-09T07:26:20;3.17;;;1.15;;
9892;SDS011;4985;49.092;8.542;2022-09-09T07:28:49;1.85;;;0.82;;
9892;SDS011;4985;49.092;8.542;2022-09-09T07:31:16;1.00;;;0.90;;
9892;SDS011;4985;49.092;8.542;2022-09-09T07:33:45;3.33;;;0.98;;
9892;SDS011;4985;49.092;8.542;2022-09-09T07:36:14;2.67;;;1.00;;
9892;SDS011;4985;49.092;8.542;2022-09-09T07:38:44;1.60;;;0.77;;
9892;SDS011;4985;49.092;8.542;2022-09-09T07:41:13;1.37;;;0.90;;
9892;SDS011;4985;49.092;8.542;2022-09-09T07:43:43;2.97;;;1.10;;
9892;SDS011;4985;49.092;8.542;2022-09-09T07:46:11;2.33;;;0.95;;
9892;SDS011;4985;49.092;8.542;2022-09-09T07:48:43;4.00;;;1.20;;
9892;SDS011;4985;49.092;8.542;2022-09-09T07:51:10;3.05;;;1.00;;
9892;SDS011;4985;49.092;8.542;2022-09-09T07:53:42;2.87;;;1.40;;
9892;SDS011;4985;49.092;8.542;2022-09-09T07:56:11;2.83;;;0.90;;
9892;SDS011;4985;49.092;8.542;2022-09-09T07:58:39;3.45;;;1.15;;
9892;SDS011;4985;49.092;8.542;2022-09-09T08:01:07;3.83;;;1.45;;
9892;SDS011;4985;49.092;8.542;2022-09-09T08:03:35;2.37;;;0.98;;
9892;SDS011;4985;49.092;8.542;2022-09-09T08:06:02;2.03;;;0.90;;
9892;SDS011;4985;49.092;8.542;2022-09-09T08:08:29;3.37;;;1.02;;
9892;SDS011;4985;49.092;8.542;2022-09-09T08:11:02;1.17;;;0.57;;
9892;SDS011;4985;49.092;8.542;2022-09-09T08:13:30;3.17;;;1.10;;
9892;SDS011;4985;49.092;8.542;2022-09-09T08:16:03;3.17;;;0.90;;
9892;SDS011;4985;49.092;8.542;2022-09-09T08:18:30;1.87;;;1.08;;
9892;SDS011;4985;49.092;8.542;2022-09-09T08:20:57;1.10;;;0.90;;
9892;SDS011;4985;49.092;8.542;2022-09-09T08:23:24;3.97;;;1.10;;
9892;SDS011;4985;49.092;8.542;2022-09-09T08:25:50;2.08;;;1.00;;
9892;SDS011;4985;49.092;8.542;2022-09-09T08:28:18;4.57;;;1.00;;
9892;SDS011;4985;49.092;8.542;2022-09-09T08:30:45;3.78;;;0.90;;
9892;SDS011;4985;49.092;8.542;2022-09-09T08:33:13;1.87;;;0.88;;
9892;SDS011;4985;49.092;8.542;2022-09-09T08:35:39;5.30;;;1.15;;
9892;SDS011;4985;49.092;8.542;2022-09-09T08:38:15;3.28;;;1.15;;
9892;SDS011;4985;49.092;8.542;2022-09-09T08:40:42;2.80;;;1.30;;
9892;SDS011;4985;49.092;8.542;2022-09-09T08:43:14;3.17;;;1.00;;
9892;SDS011;4985;49.092;8.542;2022-09-09T08:45:46;1.73;;;1.00;;
9892;SDS011;4985;49.092;8.542;2022-09-09T08:48:20;3.22;;;1.10;;
9892;SDS011;4985;49.092;8.542;2022-09-09T08:51:00;2.12;;;1.17;;
9892;SDS011;4985;49.092;8.542;2022-09-09T08:53:28;3.85;;;1.00;;
9892;SDS011;4985;49.092;8.542;2022-09-09T08:56:03;2.05;;;1.00;;
9892;SDS011;4985;49.092;8.542;2022-09-09T08:58:39;3.78;;;1.17;;
9892;SDS011;4985;49.092;8.542;2022-09-09T09:01:19;2.90;;;1.10;;
9892;SDS011;4985;49.092;8.542;2022-09-09T09:04:06;2.90;;;1.12;;
9892;SDS011;4985;49.092;8.542;2022-09-09T09:06:45;2.80;;;1.10;;
9892;SDS011;4985;49.092;8.542;2022-09-09T09:09:21;1.02;;;0.85;;
9892;SDS011;4985;49.092;8.542;2022-09-09T09:11:54;1.23;;;0.98;;
9892;SDS011;4985;49.092;8.542;2022-09-09T09:14:26;3.55;;;1.08;;
9892;SDS011;4985;49.092;8.542;2022-09-09T09:16:57;1.45;;;0.90;;
9892;SDS011;4985;49.092;8.542;2022-09-09T09:19:26;2.37;;;1.00;;
9892;SDS011;4985;49.092;8.542;2022-09-09T09:21:57;3.62;;;1.23;;
9892;SDS011;4985;49.092;8.542;2022-09-09T09:24:33;3.90;;;1.08;;
9892;SDS011;4985;49.092;8.542;2022-09-09T09:27:09;4.68;;;1.42;;
9892;SDS011;4985;49.092;8.542;2022-09-09T09:29:39;1.65;;;0.90;;
9892;SDS011;4985;49.092;8.542;2022-09-09T09:32:08;7.70;;;1.50;;
9892;SDS011;4985;49.092;8.542;2022-09-09T09:34:40;2.60;;;1.20;;
9892;SDS011;4985;49.092;8.542;2022-09-09T09:37:07;2.97;;;1.23;;
9892;SDS011;4985;49.092;8.542;2022-09-09T09:39:42;3.00;;;1.45;;
9892;SDS011;4985;49.092;8.542;2022-09-09T09:42:09;3.17;;;1.10;;
9892;SDS011;4985;49.092;8.542;2022-09-09T09:44:39;2.50;;;1.10;;
9892;SDS011;4985;49.092;8.542;2022-09-09T09:47:10;1.55;;;0.93;;
9892;SDS011;4985;49.092;8.542;2022-09-09T09:49:38;1.90;;;0.90;;
9892;SDS011;4985;49.092;8.542;2022-09-09T09:52:05;2.92;;;1.02;;
9892;SDS011;4985;49.092;8.542;2022-09-09T09:54:33;2.83;;;0.90;;
9892;SDS011;4985;49.092;8.542;2022-09-09T09:57:08;2.83;;;1.00;;
9892;SDS011;4985;49.092;8.542;2022-09-09T09:59:36;1.83;;;1.15;;
9892;SDS011;4985;49.092;8.542;2022-09-09T10:02:15;3.17;;;1.30;;
9892;SDS011;4985;49.092;8.542;2022-09-09T10:04:44;2.85;;;1.00;;
9892;SDS011;4985;49.092;8.542;2022-09-09T10:07:12;3.15;;;1.00;;
9892;SDS011;4985;49.092;8.542;2022-09-09T10:09:43;1.40;;;0.77;;
9892;SDS011;4985;49.092;8.542;2022-09-09T10:12:14;3.85;;;1.23;;
9892;SDS011;4985;49.092;8.542;2022-09-09T10:14:52;3.37;;;0.90;;
9892;SDS011;4985;49.092;8.542;2022-09-09T10:17:33;6.40;;;1.10;;
9892;SDS011;4985;49.092;8.542;2022-09-09T10:20:16;3.22;;;1.20;;
9892;SDS011;4985;49.092;8.542;2022-09-09T10:22:55;2.22;;;1.00;;
9892;SDS011;4985;49.092;8.542;2022-09-09T10:25:38;3.53;;;1.30;;
9892;SDS011;4985;49.092;8.542;2022-09-09T10:28:29;1.70;;;1.10;;
9892;SDS011;4985;49.092;8.542;2022-09-09T10:31:10;2.20;;;1.10;;
9892;SDS011;4985;49.092;8.542;2022-09-09T10:33:47;1.20;;;0.85;;
9892;SDS011;4985;49.092;8.542;2022-09-09T10:36:18;4.05;;;1.15;;
9892;SDS011;4985;49.092;8.542;2022-09-09T10:38:47;3.60;;;1.12;;
9892;SDS011;4985;49.092;8.542;2022-09-09T10:41:19;2.60;;;1.02;;
9892;SDS011;4985;49.092;8.542;2022-09-09T10:46:57;2.90;;;1.08;;
9892;SDS011;4985;49.092;8.542;2022-09-09T10:49:46;2.12;;;0.88;;
9892;SDS011;4985;49.092;8.542;2022-09-09T10:52:25;2.67;;;1.10;;
9892;SDS011;4985;49.092;8.542;2022-09-09T10:54:59;3.60;;;1.27;;
9892;SDS011;4985;49.092;8.542;2022-09-09T10:57:29;5.82;;;1.20;;
9892;SDS011;4985;49.092;8.542;2022-09-09T11:00:03;5.53;;;1.33;;
9892;SDS011;4985;49.092;8.542;2022-09-09T11:02:32;3.25;;;1.50;;
9892;SDS011;4985;49.092;8.542;2022-09-09T11:05:03;2.25;;;1.20;;
9892;SDS011;4985;49.092;8.542;2022-09-09T11:07:36;2.37;;;1.05;;
9892;SDS011;4985;49.092;8.542;2022-09-09T11:10:13;0.93;;;0.70;;
9892;SDS011;4985;49.092;8.542;2022-09-09T11:12:45;3.20;;;1.00;;
9892;SDS011;4985;49.092;8.542;2022-09-09T11:15:16;1.17;;;0.70;;
9892;SDS011;4985;49.092;8.542;2022-09-09T11:17:46;2.17;;;0.90;;
9892;SDS011;4985;49.092;8.542;2022-09-09T11:20:16;1.23;;;0.85;;
9892;SDS011;4985;49.092;8.542;2022-09-09T11:22:44;0.93;;;0.70;;
9892;SDS011;4985;49.092;8.542;2022-09-09T11:25:17;2.85;;;1.10;;
9892;SDS011;4985;49.092;8.542;2022-09-09T11:27:56;2.40;;;1.08;;
9892;SDS011;4985;49.092;8.542;2022-09-09T11:30:33;1.35;;;0.85;;
9892;SDS011;4985;49.092;8.542;2022-09-09T11:36:21;2.65;;;1.20;;
9892;SDS011;4985;49.092;8.542;2022-09-09T11:39:23;2.20;;;1.23;;
9892;SDS011;4985;49.092;8.542;2022-09-09T11:42:12;1.27;;;0.95;;
9892;SDS011;4985;49.092;8.542;2022-09-09T11:44:43;2.42;;;1.00;;
9892;SDS011;4985;49.092;8.542;2022-09-09T11:47:16;0.85;;;0.70;;
9892;SDS011;4985;49.092;8.542;2022-09-09T11:49:49;2.00;;;0.60;;
9892;SDS011;4985;49.092;8.542;2022-09-09T11:52:22;1.10;;;1.00;;
9892;SDS011;4985;49.092;8.542;2022-09-09T11:54:54;1.65;;;0.90;;
9892;SDS011;4985;49.092;8.542;2022-09-09T11:57:25;2.33;;;0.88;;
9892;SDS011;4985;49.092;8.542;2022-09-09T11:59:56;1.75;;;0.80;;
9892;SDS011;4985;49.092;8.542;2022-09-09T12:02:24;1.67;;;0.68;;
9892;SDS011;4985;49.092;8.542;2022-09-09T12:04:55;0.73;;;0.60;;
9892;SDS011;4985;49.092;8.542;2022-09-09T12:07:32;1.35;;;0.82;;
9892;SDS011;4985;49.092;8.542;2022-09-09T12:10:04;1.87;;;0.98;;
9892;SDS011;4985;49.092;8.542;2022-09-09T12:12:45;2.53;;;0.90;;
9892;SDS011;4985;49.092;8.542;2022-09-09T12:15:19;2.53;;;1.12;;
9892;SDS011;4985;49.092;8.542;2022-09-09T12:17:53;1.25;;;1.02;;
9892;SDS011;4985;49.092;8.542;2022-09-09T12:20:22;0.95;;;0.68;;
9892;SDS011;4985;49.092;8.542;2022-09-09T12:22:57;2.22;;;0.80;;
9892;SDS011;4985;49.092;8.542;2022-09-09T12:25:35;2.72;;;0.85;;
9892;SDS011;4985;49.092;8.542;2022-09-09T12:28:15;3.12;;;0.98;;
9892;SDS011;4985;49.092;8.542;2022-09-09T12:30:47;1.00;;;0.90;;
9892;SDS011;4985;49.092;8.542;2022-09-09T12:33:19;3.03;;;0.77;;
9892;SDS011;4985;49.092;8.542;2022-09-09T12:35:51;1.42;;;0.77;;
9892;SDS011;4985;49.092;8.542;2022-09-09T12:38:29;2.35;;;1.25;;
9892;SDS011;4985;49.092;8.542;2022-09-09T12:40:59;2.08;;;0.85;;
9892;SDS011;4985;49.092;8.542;2022-09-09T12:43:26;2.62;;;0.98;;
9892;SDS011;4985;49.092;8.542;2022-09-09T12:45:54;1.40;;;0.95;;
9892;SDS011;4985;49.092;8.542;2022-09-09T12:48:27;1.67;;;0.70;;
9892;SDS011;4985;49.092;8.542;2022-09-09T12:50:58;3.03;;;1.10;;
9892;SDS011;4985;49.092;8.542;2022-09-09T12:53:28;1.52;;;0.88;;
9892;SDS011;4985;49.092;8.542;2022-09-09T12:55:59;2.87;;;1.12;;
9892;SDS011;4985;49.092;8.542;2022-09-09T12:58:28;3.78;;;1.05;;
9892;SDS011;4985;49.092;8.542;2022-09-09T13:00:58;3.30;;;0.70;;
9892;SDS011;4985;49.092;8.542;2022-09-09T13:03:25;3.67;;;1.00;;
9892;SDS011;4985;49.092;8.542;2022-09-09T13:05:53;1.40;;;1.10;;
9892;SDS011;4985;49.092;8.542;2022-09-09T13:08:24;3.20;;;0.90;;
9892;SDS011;4985;49.092;8.542;2022-09-09T13:10:53;1.67;;;0.95;;
9892;SDS011;4985;49.092;8.542;2022-09-09T13:13:26;3.50;;;1.00;;
9892;SDS011;4985;49.092;8.542;2022-09-09T13:15:56;1.80;;;1.15;;
9892;SDS011;4985;49.092;8.542;2022-09-09T13:18:24;2.03;;;1.10;;
9892;SDS011;4985;49.092;8.542;2022-09-09T13:20:53;2.85;;;0.98;;
9892;SDS011;4985;49.092;8.542;2022-09-09T13:23:22;2.05;;;1.05;;
9892;SDS011;4985;49.092;8.542;2022-09-09T13:25:56;2.20;;;0.88;;
9892;SDS011;4985;49.092;8.542;2022-09-09T13:28:24;1.30;;;0.65;;
9892;SDS011;4985;49.092;8.542;2022-09-09T13:30:56;3.20;;;0.77;;
9892;SDS011;4985;49.092;8.542;2022-09-09T13:33:29;0.90;;;0.80;;
9892;SDS011;4985;49.092;8.542;2022-09-09T13:35:57;1.02;;;0.70;;
9892;SDS011;4985;49.092;8.542;2022-09-09T13:38:26;1.58;;;0.70;;
9892;SDS011;4985;49.092;8.542;2022-09-09T13:40:57;3.28;;;0.75;;
9892;SDS011;4985;49.092;8.542;2022-09-09T13:43:27;1.15;;;0.93;;
9892;SDS011;4985;49.092;8.542;2022-09-09T13:45:56;0.85;;;0.80;;
9892;SDS011;4985;49.092;8.542;2022-09-09T13:48:24;1.25;;;0.70;;
9892;SDS011;4985;49.092;8.542;2022-09-09T13:50:59;1.05;;;0.68;;
9892;SDS011;4985;49.092;8.542;2022-09-09T13:53:32;2.87;;;0.85;;
9892;SDS011;4985;49.092;8.542;2022-09-09T13:56:01;1.35;;;0.85;;
9892;SDS011;4985;49.092;8.542;2022-09-09T13:58:29;1.95;;;1.08;;
9892;SDS011;4985;49.092;8.542;2022-09-09T14:00:58;2.12;;;1.00;;
9892;SDS011;4985;49.092;8.542;2022-09-09T14:03:26;1.17;;;0.80;;
9892;SDS011;4985;49.092;8.542;2022-09-09T14:05:53;2.05;;;0.90;;
9892;SDS011;4985;49.092;8.542;2022-09-09T14:08:22;2.70;;;1.10;;
9892;SDS011;4985;49.092;8.542;2022-09-09T14:10:52;1.55;;;1.00;;
9892;SDS011;4985;49.092;8.542;2022-09-09T14:13:25;3.30;;;0.98;;
9892;SDS011;4985;49.092;8.542;2022-09-09T14:15:53;0.70;;;0.62;;
9892;SDS011;4985;49.092;8.542;2022-09-09T14:18:29;1.77;;;0.90;;
9892;SDS011;4985;49.092;8.542;2022-09-09T14:21:03;3.25;;;1.17;;
9892;SDS011;4985;49.092;8.542;2022-09-09T14:23:32;2.95;;;1.00;;
9892;SDS011;4985;49.092;8.542;2022-09-09T14:25:59;2.30;;;1.00;;
9892;SDS011;4985;49.092;8.542;2022-09-09T14:28:28;1.40;;;0.80;;
9892;SDS011;4985;49.092;8.542;2022-09-09T14:30:58;2.15;;;0.88;;
9892;SDS011;4985;49.092;8.542;2022-09-09T14:33:26;1.30;;;0.93;;
9892;SDS011;4985;49.092;8.542;2022-09-09T14:35:55;1.95;;;0.88;;
9892;SDS011;4985;49.092;8.542;2022-09-09T14:38:22;2.67;;;1.17;;
9892;SDS011;4985;49.092;8.542;2022-09-09T14:40:49;1.87;;;1.00;;
9892;SDS011;4985;49.092;8.542;2022-09-09T14:43:15;2.20;;;0.90;;
9892;SDS011;4985;49.092;8.542;2022-09-09T14:45:43;1.90;;;0.90;;
9892;SDS011;4985;49.092;8.542;2022-09-09T14:48:12;3.42;;;0.80;;
9892;SDS011;4985;49.092;8.542;2022-09-09T14:50:39;1.17;;;0.77;;
9892;SDS011;4985;49.092;8.542;2022-09-09T14:53:06;1.77;;;1.08;;
9892;SDS011;4985;49.092;8.542;2022-09-09T14:55:33;2.10;;;1.10;;
9892;SDS011;4985;49.092;8.542;2022-09-09T14:58:00;1.58;;;1.00;;
9892;SDS011;4985;49.092;8.542;2022-09-09T15:00:27;3.12;;;1.40;;
9892;SDS011;4985;49.092;8.542;2022-09-09T15:02:55;2.55;;;1.15;;
9892;SDS011;4985;49.092;8.542;2022-09-09T15:05:21;2.62;;;1.20;;
9892;SDS011;4985;49.092;8.542;2022-09-09T15:07:49;2.42;;;1.10;;
9892;SDS011;4985;49.092;8.542;2022-09-09T15:10:16;2.55;;;1.15;;
9892;SDS011;4985;49.092;8.542;2022-09-09T15:12:43;4.15;;;1.10;;
9892;SDS011;4985;49.092;8.542;2022-09-09T15:15:10;2.72;;;1.12;;
9892;SDS011;4985;49.092;8.542;2022-09-09T15:17:37;1.87;;;1.00;;
9892;SDS011;4985;49.092;8.542;2022-09-09T15:20:06;2.65;;;1.00;;
9892;SDS011;4985;49.092;8.542;2022-09-09T15:22:34;1.60;;;1.05;;
9892;SDS011;4985;49.092;8.542;2022-09-09T15:25:02;2.08;;;1.00;;
9892;SDS011;4985;49.092;8.542;2022-09-09T15:27:30;0.80;;;0.80;;
9892;SDS011;4985;49.092;8.542;2022-09-09T15:29:57;3.15;;;0.82;;
9892;SDS011;4985;49.092;8.542;2022-09-09T15:32:24;3.75;;;0.82;;
9892;SDS011;4985;49.092;8.542;2022-09-09T15:34:50;2.75;;;1.12;;
9892;SDS011;4985;49.092;8.542;2022-09-09T15:37:19;1.08;;;0.70;;
9892;SDS011;4985;49.092;8.542;2022-09-09T15:39:46;3.33;;;0.90;;
9892;SDS011;4985;49.092;8.542;2022-09-09T15:42:13;0.77;;;0.77;;
9892;SDS011;4985;49.092;8.542;2022-09-09T15:44:40;1.85;;;1.05;;